Time;durP1;ratioP1;P1;durP2;ratioP2;P2;SDS_P1;SDS_P2;PMS_P1;PMS_P2;Temp;Humidity;BMP_temperature;BMP_pressure;BME280_temperature;BME280_humidity;BME280_pressure;Samples;Min_cycle;Max_cycle;Signal;HPM_P1;HPM_P2
2022/03/16 00:02:21;;;;;;;;;;;22.60;34.80;;;;;;5058484;28;19908;-58
2022/03/16 00:04:47;;;;;;;;;;;22.60;34.80;;;;;;5041302;28;20271;-59
2022/03/16 00:07:13;;;;;;;;;;;22.60;34.80;;;;;;5038145;28;19909;-59
2022/03/16 00:09:39;;;;;;;;;;;22.60;34.80;;;;;;5055237;28;19927;-56
2022/03/16 00:12:05;;;;;;;;;;;22.60;34.80;;;;;;5056596;28;19909;-58
2022/03/16 00:14:31;;;;;;;;;;;22.60;34.80;;;;;;5058062;28;19913;-59
2022/03/16 00:16:56;;;;;;;;;;;22.60;34.80;;;;;;5042394;28;19913;-57
2022/03/16 00:19:22;;;;;;;;;;;22.60;34.80;;;;;;5056482;28;19920;-60
2022/03/16 00:21:47;;;;;;;;;;;22.60;34.80;;;;;;5044196;28;19909;-58
2022/03/16 00:24:13;;;;;;;;;;;22.60;34.70;;;;;;5049271;28;19921;-59
2022/03/16 00:26:39;;;;;;;;;;;22.60;34.70;;;;;;5057956;28;20355;-55
2022/03/16 00:29:04;;;;;;;;;;;22.50;34.60;;;;;;5054414;28;19986;-60
2022/03/16 00:31:31;;;;;;;;;;;22.60;34.70;;;;;;5038737;28;19964;-61
2022/03/16 00:33:57;;;;;;;;;;;22.60;34.70;;;;;;5046813;28;19908;-62
2022/03/16 00:36:24;;;;;;;;;;;22.60;34.60;;;;;;5036141;28;19916;-60
2022/03/16 00:38:49;;;;;;;;;;;22.50;34.60;;;;;;5057550;28;19935;-61
2022/03/16 00:41:15;;;;;;;;;;;22.50;34.50;;;;;;5038284;28;19909;-60
2022/03/16 00:43:41;;;;;;;;;;;22.50;34.50;;;;;;5039844;28;19920;-61
2022/03/16 00:46:07;;;;;;;;;;;22.50;34.50;;;;;;5054384;28;19909;-59
2022/03/16 00:48:33;;;;;;;;;;;22.50;34.50;;;;;;5033969;28;19995;-61
2022/03/16 00:50:59;;;;;;;;;;;22.50;34.50;;;;;;5038749;28;20028;-60
2022/03/16 00:53:25;;;;;;;;;;;22.50;34.40;;;;;;5056766;28;19908;-60
2022/03/16 00:55:50;;;;;;;;;;;22.50;34.40;;;;;;5055590;28;20359;-60
2022/03/16 00:58:16;;;;;;;;;;;22.50;34.40;;;;;;5056735;28;20363;-61
2022/03/16 01:00:42;;;;;;;;;;;22.50;34.40;;;;;;5055565;28;19936;-62
2022/03/16 01:03:07;;;;;;;;;;;22.50;34.40;;;;;;5055816;28;19912;-63
2022/03/16 01:05:33;;;;;;;;;;;22.50;34.40;;;;;;5055253;28;19971;-62
2022/03/16 01:07:59;;;;;;;;;;;22.40;34.30;;;;;;5056227;28;20047;-61
2022/03/16 01:10:24;;;;;;;;;;;22.50;34.40;;;;;;5037250;28;19982;-62
2022/03/16 01:12:53;;;;;;;;;;;22.40;34.30;;;;;;5056390;28;19913;-61
2022/03/16 01:15:23;;;;;;;;;;;22.40;34.30;;;;;;5038626;28;19908;-62
2022/03/16 01:17:51;;;;;;;;;;;22.40;34.30;;;;;;5055992;28;19928;-63
2022/03/16 01:20:17;;;;;;;;;;;22.40;34.30;;;;;;5055366;28;19975;-63
2022/03/16 01:22:43;;;;;;;;;;;22.40;34.30;;;;;;5056170;28;20012;-62
2022/03/16 01:25:09;;;;;;;;;;;22.40;34.20;;;;;;5037822;28;19940;-62
2022/03/16 01:27:35;;;;;;;;;;;22.40;34.20;;;;;;5038626;28;19920;-62
2022/03/16 01:30:01;;;;;;;;;;;22.40;34.20;;;;;;5053691;28;19917;-63
2022/03/16 01:32:26;;;;;;;;;;;22.40;34.20;;;;;;5052873;28;19961;-62
2022/03/16 01:34:52;;;;;;;;;;;22.40;34.20;;;;;;5053945;28;20225;-61
2022/03/16 01:37:18;;;;;;;;;;;22.40;34.10;;;;;;5038669;28;19942;-62
2022/03/16 01:39:44;;;;;;;;;;;22.40;34.10;;;;;;5035767;28;20059;-63
2022/03/16 01:42:10;;;;;;;;;;;22.40;34.10;;;;;;5019401;28;19975;-62
2022/03/16 01:44:52;;;;;;;;;;;22.40;34.10;;;;;;5027162;28;19960;-63
2022/03/16 01:47:20;;;;;;;;;;;22.40;34.10;;;;;;5056023;28;19938;-62
2022/03/16 01:49:48;;;;;;;;;;;22.40;34.00;;;;;;5037369;28;19936;-62
2022/03/16 01:52:15;;;;;;;;;;;22.40;34.00;;;;;;5028756;28;19952;-63
2022/03/16 01:54:40;;;;;;;;;;;22.30;34.00;;;;;;5052254;28;20282;-62
2022/03/16 01:57:09;;;;;;;;;;;22.30;33.90;;;;;;5026943;28;19927;-62
2022/03/16 01:59:36;;;;;;;;;;;22.30;33.90;;;;;;5037788;28;19960;-62
2022/03/16 02:02:02;;;;;;;;;;;22.30;33.90;;;;;;5037396;28;20020;-61
2022/03/16 02:04:28;;;;;;;;;;;22.30;33.80;;;;;;5034864;28;19962;-61
2022/03/16 02:06:54;;;;;;;;;;;22.30;33.80;;;;;;5042934;28;19908;-61
2022/03/16 02:09:21;;;;;;;;;;;22.30;33.80;;;;;;5055285;28;20300;-62
2022/03/16 02:11:47;;;;;;;;;;;22.30;33.80;;;;;;5043282;28;19935;-62
2022/03/16 02:14:13;;;;;;;;;;;22.30;33.80;;;;;;5054839;28;19920;-62
2022/03/16 02:16:38;;;;;;;;;;;22.30;33.70;;;;;;5055071;28;19924;-63
2022/03/16 02:19:04;;;;;;;;;;;22.30;33.70;;;;;;5053287;28;19920;-61
2022/03/16 02:21:36;;;;;;;;;;;22.30;33.70;;;;;;5055021;28;19909;-62
2022/03/16 02:24:02;;;;;;;;;;;22.30;33.70;;;;;;5055349;28;19944;-63
2022/03/16 02:26:28;;;;;;;;;;;22.30;33.70;;;;;;5039401;28;20271;-61
2022/03/16 02:28:54;;;;;;;;;;;22.30;33.70;;;;;;5055380;28;19908;-62
2022/03/16 02:31:20;;;;;;;;;;;22.30;33.70;;;;;;5054927;28;19931;-64
2022/03/16 02:33:45;;;;;;;;;;;22.20;33.70;;;;;;5054393;28;19908;-62
2022/03/16 02:36:11;;;;;;;;;;;22.20;33.70;;;;;;5038958;28;20397;-63
2022/03/16 02:38:37;;;;;;;;;;;22.20;33.70;;;;;;5046052;28;19920;-63
2022/03/16 02:41:03;;;;;;;;;;;22.20;33.70;;;;;;5036685;28;19920;-63
2022/03/16 02:43:28;;;;;;;;;;;22.30;33.70;;;;;;5052738;28;19952;-63
2022/03/16 02:45:54;;;;;;;;;;;22.20;33.60;;;;;;5040833;28;19970;-63
2022/03/16 02:48:20;;;;;;;;;;;22.20;33.60;;;;;;5052674;28;19909;-62
2022/03/16 02:50:46;;;;;;;;;;;22.20;33.60;;;;;;5054574;28;19909;-62
2022/03/16 02:53:12;;;;;;;;;;;22.20;33.60;;;;;;5055041;28;20229;-63
2022/03/16 02:55:37;;;;;;;;;;;22.20;33.60;;;;;;5054560;28;19913;-62
2022/03/16 02:58:03;;;;;;;;;;;22.20;33.60;;;;;;5054826;28;19916;-63
2022/03/16 03:00:29;;;;;;;;;;;22.20;33.60;;;;;;5044031;28;19919;-61
2022/03/16 03:02:55;;;;;;;;;;;22.20;33.60;;;;;;5044587;28;20374;-61
2022/03/16 03:05:21;;;;;;;;;;;22.20;33.60;;;;;;5044332;28;19912;-61
2022/03/16 03:07:47;;;;;;;;;;;22.20;33.60;;;;;;5054563;28;20217;-61
2022/03/16 03:10:13;;;;;;;;;;;22.20;33.60;;;;;;5053829;28;19928;-61
2022/03/16 03:12:39;;;;;;;;;;;22.20;33.60;;;;;;5055325;28;19908;-62
2022/03/16 03:15:05;;;;;;;;;;;22.20;33.60;;;;;;5054268;28;20331;-62
2022/03/16 03:17:31;;;;;;;;;;;22.20;33.60;;;;;;5058834;28;19921;-61
2022/03/16 03:19:57;;;;;;;;;;;22.20;33.60;;;;;;5055617;28;19909;-62
2022/03/16 03:22:27;;;;;;;;;;;22.10;33.50;;;;;;5048528;28;19916;-61
2022/03/16 03:24:53;;;;;;;;;;;22.10;33.50;;;;;;5044092;28;20015;-62
2022/03/16 03:27:19;;;;;;;;;;;22.10;33.50;;;;;;5058664;28;19963;-61
2022/03/16 03:29:45;;;;;;;;;;;22.10;33.50;;;;;;5055491;28;19909;-60
2022/03/16 03:32:10;;;;;;;;;;;22.10;33.50;;;;;;5058046;28;19912;-61
2022/03/16 03:34:36;;;;;;;;;;;22.10;34.10;;;;;;5054880;28;19909;-62
2022/03/16 03:37:02;;;;;;;;;;;22.10;33.80;;;;;;5058342;28;19943;-62
2022/03/16 03:39:27;;;;;;;;;;;22.10;33.50;;;;;;5058476;28;20287;-62
2022/03/16 03:41:53;;;;;;;;;;;22.10;33.50;;;;;;5036739;28;20340;-62
2022/03/16 03:44:18;;;;;;;;;;;22.10;33.50;;;;;;5041645;28;20339;-62
2022/03/16 03:46:44;;;;;;;;;;;22.10;33.40;;;;;;5055726;28;20386;-63
2022/03/16 03:49:10;;;;;;;;;;;22.10;33.40;;;;;;5041491;28;20343;-61
2022/03/16 03:51:35;;;;;;;;;;;22.10;33.40;;;;;;5057757;28;19908;-61
2022/03/16 03:54:01;;;;;;;;;;;22.10;33.40;;;;;;5057476;28;19913;-62
2022/03/16 03:56:27;;;;;;;;;;;22.10;33.40;;;;;;5056516;28;19999;-63
2022/03/16 03:58:52;;;;;;;;;;;22.10;33.40;;;;;;5058964;28;19908;-61
2022/03/16 04:01:18;;;;;;;;;;;22.10;33.40;;;;;;5057154;28;19978;-61
2022/03/16 04:03:44;;;;;;;;;;;22.10;33.40;;;;;;5045469;28;20209;-62
2022/03/16 04:06:10;;;;;;;;;;;22.10;33.40;;;;;;5054020;28;19909;-62
2022/03/16 04:08:36;;;;;;;;;;;22.10;33.40;;;;;;5056248;28;20328;-63
2022/03/16 04:11:02;;;;;;;;;;;22.10;33.30;;;;;;5055877;28;19919;-62
2022/03/16 04:13:27;;;;;;;;;;;22.10;33.30;;;;;;5055595;28;19909;-63
2022/03/16 04:15:53;;;;;;;;;;;22.10;33.30;;;;;;5056269;28;19909;-63
2022/03/16 04:18:19;;;;;;;;;;;22.10;33.30;;;;;;5056051;28;20288;-62
2022/03/16 04:20:44;;;;;;;;;;;22.10;33.30;;;;;;5055551;28;19920;-62
2022/03/16 04:23:10;;;;;;;;;;;22.10;33.30;;;;;;5055613;28;19913;-62
2022/03/16 04:25:36;;;;;;;;;;;22.00;33.30;;;;;;5056018;28;19909;-63
2022/03/16 04:28:01;;;;;;;;;;;22.00;33.30;;;;;;5049917;28;19913;-62
2022/03/16 04:30:27;;;;;;;;;;;22.00;33.30;;;;;;5047624;28;19973;-63
2022/03/16 04:32:53;;;;;;;;;;;22.00;33.30;;;;;;5055265;28;19920;-63
2022/03/16 04:35:20;;;;;;;;;;;22.00;33.20;;;;;;5055869;28;19918;-63
2022/03/16 04:37:46;;;;;;;;;;;22.10;33.30;;;;;;5055500;28;19917;-62
2022/03/16 04:40:12;;;;;;;;;;;22.00;33.20;;;;;;5049198;28;19919;-62
2022/03/16 04:42:38;;;;;;;;;;;22.00;33.20;;;;;;5022582;28;20061;-62
2022/03/16 04:45:04;;;;;;;;;;;22.00;33.20;;;;;;5053923;28;19916;-63
2022/03/16 04:47:29;;;;;;;;;;;22.00;33.30;;;;;;5053671;28;19909;-62
2022/03/16 04:49:55;;;;;;;;;;;22.00;33.20;;;;;;5040657;28;19919;-62
2022/03/16 04:52:21;;;;;;;;;;;22.00;33.20;;;;;;5055049;28;19990;-63
2022/03/16 04:54:47;;;;;;;;;;;22.00;33.20;;;;;;5024202;28;20356;-62
2022/03/16 04:57:13;;;;;;;;;;;22.00;33.20;;;;;;5055437;28;19924;-62
2022/03/16 04:59:39;;;;;;;;;;;22.00;33.20;;;;;;5039622;28;19956;-62
2022/03/16 05:02:04;;;;;;;;;;;22.00;33.20;;;;;;5055669;28;19963;-62
2022/03/16 05:04:30;;;;;;;;;;;22.00;33.20;;;;;;5054261;28;19921;-61
2022/03/16 05:06:56;;;;;;;;;;;22.00;33.20;;;;;;5049558;28;19909;-62
2022/03/16 05:09:22;;;;;;;;;;;22.00;33.20;;;;;;4991677;28;1837534;-62
2022/03/16 05:11:48;;;;;;;;;;;22.00;33.20;;;;;;5054842;28;20452;-62
2022/03/16 05:14:13;;;;;;;;;;;21.90;33.10;;;;;;5040223;28;20333;-62
2022/03/16 05:16:39;;;;;;;;;;;21.90;33.10;;;;;;5041778;28;19924;-61
2022/03/16 05:19:05;;;;;;;;;;;21.90;33.10;;;;;;5037085;28;19913;-62
2022/03/16 05:21:30;;;;;;;;;;;21.90;33.10;;;;;;5050710;28;19934;-62
2022/03/16 05:23:56;;;;;;;;;;;21.90;33.00;;;;;;5043975;28;19919;-62
2022/03/16 05:26:22;;;;;;;;;;;21.90;33.10;;;;;;5036192;28;20306;-62
2022/03/16 05:28:47;;;;;;;;;;;21.90;33.10;;;;;;5056285;28;20193;-63
2022/03/16 05:31:13;;;;;;;;;;;21.90;33.10;;;;;;5040669;28;20259;-62
2022/03/16 05:33:39;;;;;;;;;;;21.90;33.00;;;;;;5047802;28;19917;-62
2022/03/16 05:36:04;;;;;;;;;;;21.90;33.00;;;;;;5040224;28;19935;-63
2022/03/16 05:38:31;;;;;;;;;;;21.90;33.00;;;;;;5046864;28;19916;-62
2022/03/16 05:40:56;;;;;;;;;;;21.90;33.00;;;;;;5041913;28;19916;-64
2022/03/16 05:43:22;;;;;;;;;;;21.90;33.00;;;;;;5038091;28;20375;-63
2022/03/16 05:45:49;;;;;;;;;;;21.90;33.00;;;;;;5049164;28;19909;-63
2022/03/16 05:48:15;;;;;;;;;;;21.90;33.00;;;;;;5056072;28;19920;-63
2022/03/16 05:50:44;;;;;;;;;;;21.90;32.90;;;;;;5050486;28;19912;-62
2022/03/16 05:53:10;;;;;;;;;;;21.90;32.90;;;;;;5037651;28;19915;-63
2022/03/16 05:55:36;;;;;;;;;;;21.90;32.90;;;;;;5053945;28;19909;-63
2022/03/16 05:58:01;;;;;;;;;;;21.90;32.90;;;;;;5055873;28;20066;-63
2022/03/16 06:00:27;;;;;;;;;;;21.90;32.90;;;;;;5055415;28;20320;-63
2022/03/16 06:02:53;;;;;;;;;;;21.90;32.90;;;;;;5051456;28;19919;-62
2022/03/16 06:05:19;;;;;;;;;;;21.90;32.90;;;;;;5045330;28;19908;-64
2022/03/16 06:07:44;;;;;;;;;;;21.90;32.90;;;;;;5050663;28;19957;-63
2022/03/16 06:10:12;;;;;;;;;;;21.80;32.80;;;;;;5036666;28;19917;-62
2022/03/16 06:12:51;;;;;;;;;;;21.90;32.90;;;;;;5036395;28;20532;-63
2022/03/16 06:15:16;;;;;;;;;;;21.90;32.90;;;;;;5051322;28;19939;-64
2022/03/16 06:17:42;;;;;;;;;;;21.80;32.80;;;;;;5055181;28;19917;-64
2022/03/16 06:20:08;;;;;;;;;;;21.80;32.80;;;;;;5054431;28;20249;-61
2022/03/16 06:22:33;;;;;;;;;;;21.90;32.90;;;;;;5054524;28;19948;-64
2022/03/16 06:24:59;;;;;;;;;;;21.90;32.90;;;;;;5049044;28;19967;-63
2022/03/16 06:27:25;;;;;;;;;;;21.80;32.80;;;;;;5020362;28;19943;-63
2022/03/16 06:29:50;;;;;;;;;;;21.80;32.80;;;;;;5051377;28;19943;-62
2022/03/16 06:32:16;;;;;;;;;;;21.90;32.90;;;;;;5036691;28;19909;-63
2022/03/16 06:34:41;;;;;;;;;;;21.90;32.90;;;;;;5055574;28;20311;-63
2022/03/16 06:37:07;;;;;;;;;;;21.80;32.80;;;;;;5054588;28;20332;-64
2022/03/16 06:39:33;;;;;;;;;;;21.80;32.80;;;;;;5053469;28;19909;-63
2022/03/16 06:41:58;;;;;;;;;;;21.80;32.80;;;;;;5036053;28;19920;-62
2022/03/16 06:44:24;;;;;;;;;;;21.80;32.80;;;;;;5040092;28;19913;-62
2022/03/16 06:46:51;;;;;;;;;;;21.80;32.80;;;;;;5037843;28;19909;-61
2022/03/16 06:49:16;;;;;;;;;;;21.80;32.80;;;;;;5036789;28;19909;-63
2022/03/16 06:51:42;;;;;;;;;;;21.80;32.80;;;;;;5053647;28;19919;-62
2022/03/16 06:54:08;;;;;;;;;;;21.80;32.80;;;;;;5042045;28;19909;-63
2022/03/16 06:56:33;;;;;;;;;;;21.80;32.80;;;;;;5054780;28;19917;-63
2022/03/16 06:58:59;;;;;;;;;;;21.80;32.80;;;;;;5054134;28;19936;-64
2022/03/16 07:01:25;;;;;;;;;;;21.80;32.80;;;;;;5053942;28;19908;-64
2022/03/16 07:03:50;;;;;;;;;;;21.80;32.80;;;;;;5042450;28;19917;-64
2022/03/16 07:06:16;;;;;;;;;;;21.80;32.80;;;;;;5053914;28;19919;-63
2022/03/16 07:08:42;;;;;;;;;;;21.80;32.80;;;;;;5029843;28;19932;-62
2022/03/16 07:11:07;;;;;;;;;;;21.90;32.90;;;;;;5034969;28;19974;-62
2022/03/16 07:13:33;;;;;;;;;;;21.80;32.80;;;;;;5049600;28;19916;-61
2022/03/16 07:15:59;;;;;;;;;;;21.80;32.80;;;;;;5053535;28;19919;-63
2022/03/16 07:18:24;;;;;;;;;;;21.80;32.80;;;;;;5054051;28;19920;-63
2022/03/16 07:20:50;;;;;;;;;;;21.80;32.90;;;;;;5039009;28;20233;-63
2022/03/16 07:23:17;;;;;;;;;;;21.80;32.80;;;;;;5045035;28;19920;-62
2022/03/16 07:25:44;;;;;;;;;;;21.80;32.80;;;;;;5047783;28;19986;-61
2022/03/16 07:28:10;;;;;;;;;;;21.80;32.90;;;;;;5053756;28;19955;-62
2022/03/16 07:30:36;;;;;;;;;;;21.80;32.90;;;;;;5031013;28;19912;-64
2022/03/16 07:33:08;;;;;;;;;;;21.80;32.90;;;;;;5046672;28;20332;-62
2022/03/16 07:35:35;;;;;;;;;;;21.80;32.90;;;;;;5048038;28;19913;-62
2022/03/16 07:38:02;;;;;;;;;;;21.80;32.80;;;;;;5062735;28;19927;-62
2022/03/16 07:40:30;;;;;;;;;;;21.80;32.90;;;;;;5046101;28;19920;-61
2022/03/16 07:42:58;;;;;;;;;;;21.80;32.90;;;;;;5054036;28;19908;-61
2022/03/16 07:45:27;;;;;;;;;;;21.80;32.90;;;;;;5037248;28;19963;-61
2022/03/16 07:47:53;;;;;;;;;;;21.80;32.90;;;;;;5052105;28;19909;-62
2022/03/16 07:50:19;;;;;;;;;;;21.80;33.00;;;;;;5042710;28;19909;-61
2022/03/16 07:52:46;;;;;;;;;;;21.80;33.00;;;;;;5052245;28;19909;-61
2022/03/16 07:55:15;;;;;;;;;;;21.80;33.00;;;;;;5048245;28;20244;-61
2022/03/16 07:57:41;;;;;;;;;;;21.80;33.00;;;;;;5047639;28;19917;-61
2022/03/16 08:00:10;;;;;;;;;;;21.80;33.00;;;;;;5043939;28;19955;-61
2022/03/16 08:02:36;;;;;;;;;;;21.90;33.10;;;;;;5049009;28;19913;-61
2022/03/16 08:05:02;;;;;;;;;;;21.80;33.10;;;;;;5053779;28;20252;-61
2022/03/16 08:07:28;;;;;;;;;;;21.80;33.10;;;;;;5040351;28;19920;-61
2022/03/16 08:09:54;;;;;;;;;;;21.80;33.10;;;;;;5054932;28;19924;-62
2022/03/16 08:12:20;;;;;;;;;;;21.80;33.10;;;;;;5036658;28;19917;-62
2022/03/16 08:14:45;;;;;;;;;;;21.80;33.20;;;;;;5056847;28;20328;-62
2022/03/16 08:17:11;;;;;;;;;;;21.80;33.20;;;;;;5050939;28;19959;-56
2022/03/16 08:19:37;;;;;;;;;;;21.80;33.20;;;;;;5044731;28;19909;-52
2022/03/16 08:22:04;;;;;;;;;;;21.80;33.20;;;;;;5048663;28;19909;-52
2022/03/16 08:24:31;;;;;;;;;;;21.80;33.30;;;;;;5049432;28;19913;-56
2022/03/16 08:26:56;;;;;;;;;;;21.80;33.30;;;;;;5050596;28;20336;-52
2022/03/16 08:29:22;;;;;;;;;;;21.90;33.40;;;;;;5045808;28;19958;-53
2022/03/16 08:31:48;;;;;;;;;;;21.80;33.30;;;;;;5051969;28;20263;-58
2022/03/16 08:34:14;;;;;;;;;;;21.90;33.40;;;;;;5046520;28;19909;-52
2022/03/16 08:36:39;;;;;;;;;;;21.80;33.40;;;;;;5045710;28;20196;-53
2022/03/16 08:39:05;;;;;;;;;;;21.80;33.40;;;;;;5049846;28;19909;-54
2022/03/16 08:41:35;;;;;;;;;;;21.80;33.50;;;;;;5053774;28;19999;-50
2022/03/16 08:44:02;;;;;;;;;;;21.80;33.50;;;;;;5040179;28;19913;-50
2022/03/16 08:46:28;;;;;;;;;;;21.90;33.50;;;;;;5041838;28;20209;-52
2022/03/16 08:48:54;;;;;;;;;;;21.90;33.50;;;;;;5052744;28;19913;-54
2022/03/16 08:51:20;;;;;;;;;;;21.90;33.40;;;;;;5053059;28;19999;-56
2022/03/16 08:53:45;;;;;;;;;;;21.90;33.40;;;;;;5042102;28;19909;-49
2022/03/16 08:56:11;;;;;;;;;;;21.90;33.40;;;;;;5050912;28;20304;-53
2022/03/16 08:58:37;;;;;;;;;;;21.90;33.40;;;;;;5052547;28;20003;-55
2022/03/16 09:01:02;;;;;;;;;;;21.90;33.30;;;;;;5044544;28;19916;-55
2022/03/16 09:03:28;;;;;;;;;;;21.90;33.30;;;;;;5045579;28;19916;-54
2022/03/16 09:05:54;;;;;;;;;;;21.90;33.20;;;;;;5056876;28;19913;-55
2022/03/16 09:08:21;;;;;;;;;;;21.90;33.20;;;;;;5051925;28;20011;-59
2022/03/16 09:10:48;;;;;;;;;;;21.90;33.20;;;;;;5049906;28;19921;-51
2022/03/16 09:13:17;;;;;;;;;;;21.90;33.10;;;;;;5048809;28;19916;-58
2022/03/16 09:15:45;;;;;;;;;;;21.90;33.10;;;;;;5053121;28;19908;-56
2022/03/16 09:18:11;;;;;;;;;;;21.90;33.10;;;;;;5056202;28;20216;-60
2022/03/16 09:20:38;;;;;;;;;;;21.80;33.00;;;;;;5050238;28;19978;-57
2022/03/16 09:23:06;;;;;;;;;;;21.90;33.00;;;;;;5052790;28;19990;-60
2022/03/16 09:25:32;;;;;;;;;;;21.90;32.90;;;;;;5050425;28;19909;-59
2022/03/16 09:28:00;;;;;;;;;;;21.90;32.90;;;;;;5051529;28;19913;-61
2022/03/16 09:30:26;;;;;;;;;;;21.90;32.90;;;;;;5051415;28;19996;-58
2022/03/16 09:32:57;;;;;;;;;;;21.90;32.80;;;;;;5053489;28;19917;-56
2022/03/16 09:35:24;;;;;;;;;;;21.90;32.80;;;;;;5049794;28;19908;-52
2022/03/16 09:37:50;;;;;;;;;;;21.90;32.80;;;;;;5048363;28;19929;-60
2022/03/16 09:40:17;;;;;;;;;;;21.90;32.70;;;;;;5049718;28;20008;-53
2022/03/16 09:42:44;;;;;;;;;;;21.90;32.70;;;;;;5047045;28;19908;-57
2022/03/16 09:45:15;;;;;;;;;;;21.90;32.70;;;;;;5053971;28;19913;-55
2022/03/16 09:47:41;;;;;;;;;;;21.90;32.70;;;;;;5050682;28;20286;-50
2022/03/16 09:50:09;;;;;;;;;;;21.90;32.60;;;;;;5041330;28;19913;-53
2022/03/16 09:52:40;;;;;;;;;;;21.90;32.60;;;;;;5053916;28;19999;-60
2022/03/16 09:55:06;;;;;;;;;;;21.90;32.60;;;;;;5049142;28;19920;-60
2022/03/16 09:57:36;;;;;;;;;;;21.90;32.60;;;;;;5055025;28;19924;-59
2022/03/16 10:00:02;;;;;;;;;;;21.90;32.60;;;;;;5053902;28;19920;-59
2022/03/16 10:02:31;;;;;;;;;;;21.90;33.20;;;;;;5048130;28;19920;-58
2022/03/16 10:04:57;;;;;;;;;;;21.90;32.50;;;;;;5050539;28;20020;-59
2022/03/16 10:07:27;;;;;;;;;;;21.90;32.50;;;;;;5020211;28;20340;-58
2022/03/16 10:15:21;;;;;;;;;;;21.80;32.50;;;;;;5044186;28;19913;-53
2022/03/16 10:17:48;;;;;;;;;;;21.80;32.50;;;;;;5044132;28;19917;-54
2022/03/16 10:20:28;;;;;;;;;;;21.80;32.60;;;;;;5055620;28;20224;-53
2022/03/16 10:22:57;;;;;;;;;;;21.70;32.50;;;;;;5053884;28;19963;-52
2022/03/16 10:25:23;;;;;;;;;;;21.70;32.50;;;;;;5044079;28;20336;-53
2022/03/16 10:27:48;;;;;;;;;;;21.70;32.50;;;;;;5045846;28;20375;-54
2022/03/16 10:30:14;;;;;;;;;;;21.70;32.50;;;;;;5048579;28;19936;-57
2022/03/16 10:32:52;;;;;;;;;;;21.70;32.50;;;;;;5050469;28;19948;-55
2022/03/16 10:35:17;;;;;;;;;;;21.70;32.60;;;;;;5035741;28;19913;-49
2022/03/16 10:37:47;;;;;;;;;;;21.70;32.60;;;;;;5038573;28;19924;-51
2022/03/16 10:40:19;;;;;;;;;;;21.60;32.60;;;;;;5035818;28;19920;-55
2022/03/16 10:48:15;;;;;;;;;;;21.60;32.70;;;;;;5050733;28;20272;-53
2022/03/16 10:50:41;;;;;;;;;;;21.60;32.60;;;;;;5055031;28;19963;-55
2022/03/16 10:53:09;;;;;;;;;;;21.60;32.70;;;;;;5046930;28;20343;-54
2022/03/16 10:55:36;;;;;;;;;;;21.60;32.70;;;;;;5043881;28;19919;-53
2022/03/16 10:58:02;;;;;;;;;;;21.60;32.70;;;;;;5048927;28;19967;-53
2022/03/16 11:00:27;;;;;;;;;;;21.60;32.70;;;;;;5050988;28;19909;-53
2022/03/16 11:02:54;;;;;;;;;;;21.60;32.70;;;;;;5043088;28;19974;-50
2022/03/16 11:05:20;;;;;;;;;;;21.60;32.70;;;;;;5046207;28;19909;-54
2022/03/16 11:07:49;;;;;;;;;;;21.60;32.70;;;;;;5048572;28;19920;-51
2022/03/16 11:10:15;;;;;;;;;;;21.60;32.70;;;;;;5055614;28;20189;-55
2022/03/16 11:15:26;;;;;;;;;;;21.60;32.80;;;;;;5050957;28;19908;-50
2022/03/16 11:17:51;;;;;;;;;;;21.60;33.10;;;;;;5050615;28;19928;-49
2022/03/16 11:20:19;;;;;;;;;;;21.60;33.30;;;;;;5053322;28;19916;-56
2022/03/16 11:25:49;;;;;;;;;;;21.70;33.50;;;;;;4985099;28;19909;-55
2022/03/16 11:28:19;;;;;;;;;;;21.70;33.60;;;;;;5040041;28;20320;-55
2022/03/16 11:30:45;;;;;;;;;;;21.80;33.60;;;;;;5055447;28;19916;-54
2022/03/16 11:33:13;;;;;;;;;;;21.80;33.60;;;;;;5044146;28;19972;-55
2022/03/16 11:35:50;;;;;;;;;;;21.80;33.60;;;;;;5036280;28;19916;-55
2022/03/16 11:38:17;;;;;;;;;;;21.80;33.60;;;;;;5042458;28;19927;-53
2022/03/16 11:40:44;;;;;;;;;;;21.90;33.60;;;;;;5055762;28;19920;-52
2022/03/16 11:43:15;;;;;;;;;;;21.90;33.50;;;;;;5056259;28;19909;-51
2022/03/16 11:45:44;;;;;;;;;;;21.90;33.50;;;;;;5050443;28;19913;-50
2022/03/16 11:48:31;;;;;;;;;;;22.00;33.50;;;;;;5043190;28;19909;-48
2022/03/16 11:51:09;;;;;;;;;;;22.00;33.40;;;;;;5042774;28;19909;-54
2022/03/16 11:54:08;;;;;;;;;;;22.00;33.30;;;;;;5046326;28;19909;-56
2022/03/16 11:56:39;;;;;;;;;;;22.00;33.30;;;;;;5054200;28;19960;-53
2022/03/16 11:59:09;;;;;;;;;;;22.00;33.20;;;;;;5037877;28;20343;-56
2022/03/16 12:01:38;;;;;;;;;;;22.00;33.20;;;;;;5048701;28;19920;-55
2022/03/16 12:04:22;;;;;;;;;;;22.00;33.10;;;;;;5053285;28;20239;-54
2022/03/16 12:07:03;;;;;;;;;;;22.00;33.00;;;;;;5055016;28;19912;-52
2022/03/16 12:09:44;;;;;;;;;;;22.00;32.90;;;;;;5039017;28;19927;-53
2022/03/16 12:15:15;;;;;;;;;;;22.00;32.80;;;;;;5038471;28;19909;-58
2022/03/16 12:18:01;;;;;;;;;;;22.10;32.80;;;;;;5050144;28;19931;-56
2022/03/16 12:20:37;;;;;;;;;;;22.10;32.70;;;;;;5056700;28;19917;-58
2022/03/16 12:23:09;;;;;;;;;;;22.10;32.70;;;;;;5054149;28;19908;-54
2022/03/16 12:25:36;;;;;;;;;;;22.10;32.70;;;;;;5051644;28;19939;-57
2022/03/16 12:30:58;;;;;;;;;;;22.10;32.60;;;;;;5044571;28;19908;-51
2022/03/16 12:33:25;;;;;;;;;;;22.00;32.50;;;;;;5041372;28;20008;-52
2022/03/16 12:35:59;;;;;;;;;;;22.00;32.50;;;;;;5036966;28;20016;-54
2022/03/16 12:38:27;;;;;;;;;;;22.00;32.50;;;;;;5038456;28;19963;-57
2022/03/16 12:43:37;;;;;;;;;;;21.90;32.40;;;;;;5045541;28;19909;-50
2022/03/16 12:46:19;;;;;;;;;;;21.90;32.40;;;;;;5048529;28;19913;-53
2022/03/16 12:48:48;;;;;;;;;;;21.90;32.40;;;;;;5055375;28;19909;-54
2022/03/16 12:51:17;;;;;;;;;;;21.90;32.40;;;;;;5042981;28;19909;-55
2022/03/16 12:53:46;;;;;;;;;;;21.90;32.40;;;;;;5044333;28;20340;-55
2022/03/16 12:56:17;;;;;;;;;;;21.90;32.40;;;;;;5052321;28;19920;-57
2022/03/16 12:58:52;;;;;;;;;;;21.90;32.40;;;;;;5045756;28;19974;-60
2022/03/16 13:01:19;;;;;;;;;;;21.90;32.40;;;;;;5047319;28;19920;-54
2022/03/16 13:03:45;;;;;;;;;;;21.90;32.30;;;;;;5047971;28;20625;-61
2022/03/16 13:06:15;;;;;;;;;;;21.90;32.20;;;;;;5057369;28;19960;-56
2022/03/16 13:08:42;;;;;;;;;;;21.90;32.20;;;;;;5057049;28;20274;-56
2022/03/16 13:11:17;;;;;;;;;;;21.90;32.20;;;;;;5055619;28;19974;-55
2022/03/16 13:13:46;;;;;;;;;;;21.90;32.20;;;;;;5036975;28;19920;-57
2022/03/16 13:16:31;;;;;;;;;;;21.90;32.20;;;;;;5037634;28;19935;-53
2022/03/16 13:18:56;;;;;;;;;;;21.80;32.20;;;;;;5037229;28;20291;-55
2022/03/16 13:21:23;;;;;;;;;;;21.90;32.20;;;;;;5039763;28;20011;-57
2022/03/16 13:23:59;;;;;;;;;;;21.80;32.20;;;;;;5056605;28;19959;-55
2022/03/16 13:26:25;;;;;;;;;;;21.80;32.20;;;;;;5056798;28;19956;-56
2022/03/16 13:28:51;;;;;;;;;;;21.80;32.10;;;;;;5056711;28;20023;-58
2022/03/16 13:31:23;;;;;;;;;;;21.80;32.10;;;;;;5055921;28;20008;-58
2022/03/16 13:33:50;;;;;;;;;;;21.80;32.10;;;;;;5040566;28;19909;-59
2022/03/16 13:36:15;;;;;;;;;;;21.80;32.10;;;;;;5037465;28;19909;-54
2022/03/16 13:38:41;;;;;;;;;;;21.80;32.10;;;;;;5047294;28;19929;-57
2022/03/16 13:41:14;;;;;;;;;;;21.80;32.10;;;;;;5044366;28;19909;-54
2022/03/16 13:43:40;;;;;;;;;;;21.80;32.10;;;;;;5044155;28;20336;-56
2022/03/16 13:46:14;;;;;;;;;;;21.80;32.10;;;;;;5047189;28;20008;-57
2022/03/16 13:48:41;;;;;;;;;;;21.80;32.10;;;;;;5035879;28;19909;-57
2022/03/16 13:51:07;;;;;;;;;;;21.80;32.10;;;;;;5036579;28;20022;-55
2022/03/16 13:53:40;;;;;;;;;;;21.80;32.10;;;;;;5042280;28;19927;-54
2022/03/16 13:56:13;;;;;;;;;;;21.80;32.10;;;;;;5051021;28;19909;-57
2022/03/16 13:58:39;;;;;;;;;;;21.70;32.00;;;;;;5034907;28;19917;-57
2022/03/16 14:01:06;;;;;;;;;;;21.80;32.00;;;;;;5043574;28;19940;-55
2022/03/16 14:03:32;;;;;;;;;;;21.70;32.00;;;;;;5049113;28;20267;-55
2022/03/16 14:05:58;;;;;;;;;;;21.80;32.00;;;;;;5036069;28;19909;-55
2022/03/16 14:08:24;;;;;;;;;;;21.70;32.00;;;;;;5035451;28;19959;-51
2022/03/16 14:10:50;;;;;;;;;;;21.70;32.00;;;;;;5047582;28;20217;-55
2022/03/16 14:13:17;;;;;;;;;;;21.70;32.00;;;;;;5037151;28;19909;-57
2022/03/16 14:15:45;;;;;;;;;;;21.70;32.00;;;;;;5050236;28;19920;-54
2022/03/16 14:18:11;;;;;;;;;;;21.70;31.90;;;;;;5054758;28;19981;-57
2022/03/16 14:20:53;;;;;;;;;;;21.70;31.90;;;;;;5046840;28;19905;-52
2022/03/16 14:23:19;;;;;;;;;;;21.70;31.90;;;;;;5054062;28;19908;-56
2022/03/16 14:25:47;;;;;;;;;;;21.70;31.90;;;;;;5048032;28;20007;-59
2022/03/16 14:28:13;;;;;;;;;;;21.70;32.00;;;;;;5046255;28;20085;-54
2022/03/16 14:30:49;;;;;;;;;;;21.70;32.10;;;;;;5047997;28;19913;-55
2022/03/16 14:33:26;;;;;;;;;;;21.70;32.10;;;;;;5048883;28;19912;-52
2022/03/16 14:35:54;;;;;;;;;;;21.70;32.10;;;;;;5041106;28;19908;-55
2022/03/16 14:38:20;;;;;;;;;;;21.70;32.10;;;;;;5036496;28;20478;-56
2022/03/16 14:41:07;;;;;;;;;;;21.70;32.10;;;;;;5039159;28;20015;-55
2022/03/16 14:43:32;;;;;;;;;;;21.70;32.10;;;;;;5035208;28;19956;-56